Time;durP1;ratioP1;P1;durP2;ratioP2;P2;SDS_P1;SDS_P2;PMS_P1;PMS_P2;Temp;Humidity;BMP_temperature;BMP_pressure;BME280_temperature;BME280_humidity;BME280_pressure;Samples;Min_cycle;Max_cycle;Signal;HPM_P1;HPM_P2
2021/01/21 00:00:28;;;;;;;2.60;1.40;;;;;;;10.27;97.25;98642.81;5197162;28;20117;-65
2021/01/21 00:02:58;;;;;;;3.30;1.17;;;;;;;10.37;95.22;98653.84;5199117;28;20025;-65
2021/01/21 00:05:29;;;;;;;2.55;1.48;;;;;;;10.47;94.12;98657.91;5194947;28;20033;-65
2021/01/21 00:07:59;;;;;;;9.00;1.90;;;;;;;10.40;94.19;98633.84;5184386;28;20014;-66
2021/01/21 00:10:30;;;;;;;2.55;1.10;;;;;;;10.36;94.49;98644.19;5195667;28;20112;-64
2021/01/21 00:13:00;;;;;;;3.90;1.20;;;;;;;10.37;94.04;98629.75;5203593;28;20029;-65
2021/01/21 00:15:31;;;;;;;10.55;1.30;;;;;;;10.41;93.37;98615.91;5192684;28;20037;-65
2021/01/21 00:18:01;;;;;;;3.17;1.10;;;;;;;10.48;92.61;98604.06;5183400;28;20058;-65
2021/01/21 00:20:32;;;;;;;2.85;1.27;;;;;;;10.46;92.98;98602.66;5197947;28;20025;-64
2021/01/21 00:23:03;;;;;;;5.80;1.50;;;;;;;10.44;93.93;98602.06;5196516;28;20109;-65
2021/01/21 00:25:33;;;;;;;5.35;1.75;;;;;;;10.53;93.09;98590.84;5181884;28;20026;-65
2021/01/21 00:28:04;;;;;;;5.40;1.40;;;;;;;10.55;92.05;98572.69;5192300;28;20476;-63
2021/01/21 00:30:35;;;;;;;9.63;1.63;;;;;;;10.67;90.59;98566.59;5191570;28;20041;-65
2021/01/21 00:33:05;;;;;;;5.28;1.75;;;;;;;10.77;88.95;98548.09;5193700;28;20079;-65
2021/01/21 00:35:36;;;;;;;9.93;1.83;;;;;;;10.76;89.12;98541.94;5184536;28;20108;-65
2021/01/21 00:38:06;;;;;;;3.53;1.60;;;;;;;10.73;89.10;98533.50;5177008;28;20058;-65
2021/01/21 00:40:36;;;;;;;3.95;1.23;;;;;;;10.81;88.49;98536.72;5199635;28;20029;-65
2021/01/21 00:43:07;;;;;;;4.00;1.48;;;;;;;10.85;87.68;98543.28;5190976;28;20745;-64
2021/01/21 00:45:37;;;;;;;7.43;1.83;;;;;;;10.78;88.19;98513.00;5184055;28;20416;-65
2021/01/21 00:48:08;;;;;;;2.83;1.50;;;;;;;10.82;87.93;98529.47;5183853;28;20396;-65
2021/01/21 00:50:38;;;;;;;1.95;1.00;;;;;;;10.74;88.78;98522.53;5204611;28;20030;-65
2021/01/21 00:53:09;;;;;;;3.65;1.38;;;;;;;10.79;88.38;98535.28;5199622;28;20084;-64
2021/01/21 00:55:39;;;;;;;6.95;1.73;;;;;;;10.87;87.57;98505.50;5184163;28;20468;-65
2021/01/21 00:58:10;;;;;;;11.02;1.73;;;;;;;10.88;87.50;98504.44;5185402;28;20022;-65
2021/01/21 01:00:40;;;;;;;3.28;1.00;;;;;;;11.01;86.05;98501.59;5194554;28;20033;-65
2021/01/21 01:03:11;;;;;;;3.40;1.35;;;;;;;10.97;85.55;98476.25;5198272;28;20017;-65
2021/01/21 01:05:41;;;;;;;3.95;1.92;;;;;;;11.09;83.68;98485.19;5191262;28;20181;-65
2021/01/21 01:08:12;;;;;;;2.22;1.27;;;;;;;11.04;84.38;98471.63;5183628;28;20071;-65
2021/01/21 01:10:42;;;;;;;5.28;1.88;;;;;;;10.99;86.13;98484.06;5184599;28;20021;-65
2021/01/21 01:13:13;;;;;;;4.63;1.40;;;;;;;11.05;86.32;98486.69;5182784;28;20083;-65
2021/01/21 01:15:43;;;;;;;2.22;1.15;;;;;;;11.04;86.10;98498.44;5184257;28;20163;-64
2021/01/21 01:18:14;;;;;;;4.72;1.13;;;;;;;11.08;86.02;98474.69;5182818;28;20037;-65
2021/01/21 01:20:44;;;;;;;4.38;1.58;;;;;;;11.12;85.59;98471.31;5184245;28;20029;-65
2021/01/21 01:23:15;;;;;;;5.50;1.40;;;;;;;11.09;86.12;98470.94;5188025;28;20506;-66
2021/01/21 01:25:46;;;;;;;2.40;1.20;;;;;;;11.08;86.31;98478.19;5169689;28;20025;-65
2021/01/21 01:28:16;;;;;;;3.78;1.25;;;;;;;11.05;86.09;98445.63;5203171;28;20067;-65
2021/01/21 01:30:46;;;;;;;2.70;1.30;;;;;;;11.04;86.13;98473.50;5202767;28;20017;-65
2021/01/21 01:33:17;;;;;;;6.30;1.63;;;;;;;11.04;86.83;98485.03;5202604;28;20398;-64
2021/01/21 01:35:47;;;;;;;7.43;1.33;;;;;;;11.15;86.23;98462.00;5203496;28;20103;-65
2021/01/21 01:38:18;;;;;;;4.72;1.38;;;;;;;11.27;85.13;98456.66;5181037;28;20034;-65
2021/01/21 01:40:52;;;;;;;2.92;1.35;;;;;;;11.20;87.38;98483.59;5177179;28;20029;-65
2021/01/21 01:43:22;;;;;;;3.53;1.23;;;;;;;11.18;87.30;98474.13;5186560;28;20040;-65
2021/01/21 01:45:53;;;;;;;2.72;1.25;;;;;;;11.11;88.96;98448.22;5183010;28;20022;-65
2021/01/21 01:48:23;;;;;;;4.97;1.20;;;;;;;11.17;89.89;98437.63;5182257;28;20021;-64
2021/01/21 01:50:54;;;;;;;9.38;1.83;;;;;;;11.17;91.72;98480.56;5183053;28;20029;-65
2021/01/21 01:53:29;;;;;;;4.57;1.23;;;;;;;11.02;97.22;98443.41;5194188;28;20060;-65
2021/01/21 01:56:00;;;;;;;2.47;1.25;;;;;;;10.81;99.28;98460.81;5183157;28;20247;-65
2021/01/21 01:58:31;;;;;;;1.58;1.00;;;;;;;10.78;99.45;98463.91;5183278;28;20057;-66
2021/01/21 02:01:01;;;;;;;6.78;1.15;;;;;;;10.76;100.00;98444.56;5183101;28;20057;-64
2021/01/21 02:03:32;;;;;;;2.97;1.35;;;;;;;10.72;100.00;98465.66;5182233;28;20099;-65
2021/01/21 02:06:03;;;;;;;4.28;1.20;;;;;;;10.72;100.00;98454.09;5194728;28;20017;-64
2021/01/21 02:08:34;;;;;;;12.52;1.23;;;;;;;10.80;100.00;98459.16;5194280;28;20387;-65
2021/01/21 02:11:18;;;;;;;4.72;1.40;;;;;;;10.75;100.00;98419.63;5182853;28;20017;-65
2021/01/21 02:14:07;;;;;;;5.80;1.33;;;;;;;10.77;100.00;98457.75;5182140;28;20101;-66
2021/01/21 02:17:00;;;;;;;9.82;3.13;;;;;;;10.62;100.00;98423.28;5168953;28;20072;-65
2021/01/21 02:19:40;;;;;;;2.65;1.73;;;;;;;10.50;100.00;98437.66;5182292;28;20046;-65
2021/01/21 02:22:54;;;;;;;4.90;1.50;;;;;;;10.47;100.00;98441.59;5182661;28;20400;-65
2021/01/21 02:25:45;;;;;;;4.05;1.38;;;;;;;10.51;100.00;98409.81;5182425;28;20029;-65
2021/01/21 02:28:34;;;;;;;6.72;1.45;;;;;;;10.38;100.00;98425.00;5202895;28;20108;-65
2021/01/21 02:31:21;;;;;;;4.53;1.60;;;;;;;10.44;100.00;98409.06;5195609;28;20083;-65
2021/01/21 02:33:59;;;;;;;4.15;1.73;;;;;;;10.39;100.00;98415.09;5180766;28;20030;-65
2021/01/21 02:36:50;;;;;;;5.90;1.75;;;;;;;10.34;100.00;98409.59;5182298;28;20026;-65
2021/01/21 02:39:24;;;;;;;5.57;1.40;;;;;;;10.28;100.00;98437.28;5171582;28;20435;-65
2021/01/21 02:41:54;;;;;;;7.97;1.80;;;;;;;10.31;100.00;98404.69;5183707;28;20109;-65
2021/01/21 02:44:29;;;;;;;6.32;1.63;;;;;;;10.24;100.00;98410.13;5201368;28;20108;-65
2021/01/21 02:46:59;;;;;;;5.38;1.30;;;;;;;10.13;100.00;98446.47;5199559;28;20068;-65
2021/01/21 02:49:30;;;;;;;6.22;1.83;;;;;;;10.02;100.00;98411.56;5192392;28;20029;-65
2021/01/21 02:52:01;;;;;;;3.47;1.30;;;;;;;9.83;100.00;98414.19;5201745;28;20495;-65
2021/01/21 02:54:45;;;;;;;7.70;2.05;;;;;;;9.72;100.00;98411.44;5201177;28;20033;-65
2021/01/21 02:57:26;;;;;;;6.15;1.33;;;;;;;9.60;100.00;98427.41;5194606;28;20091;-65
2021/01/21 03:00:01;;;;;;;7.85;1.80;;;;;;;9.42;100.00;98425.47;5184259;28;20024;-65
2021/01/21 03:02:35;;;;;;;;;;;;;;;9.44;100.00;98431.44;5202089;28;20322;-65
2021/01/21 03:05:07;;;;;;;4.63;1.60;;;;;;;9.36;100.00;98434.38;5195695;28;19909;-66
2021/01/21 03:07:39;;;;;;;6.13;1.88;;;;;;;9.27;100.00;98420.44;5194941;28;20025;-64
2021/01/21 03:10:11;;;;;;;3.33;1.70;;;;;;;9.30;100.00;98424.56;5194440;28;20025;-66
2021/01/21 03:12:41;;;;;;;3.88;1.65;;;;;;;9.42;100.00;98417.44;5195235;28;20405;-65
2021/01/21 03:15:12;;;;;;;4.65;1.75;;;;;;;9.49;100.00;98380.75;5192929;28;20025;-65
2021/01/21 03:17:43;;;;;;;3.03;1.85;;;;;;;9.48;100.00;98391.66;5176469;28;20142;-65
2021/01/21 03:20:14;;;;;;;3.20;1.70;;;;;;;9.59;100.00;98399.00;5192214;28;20038;-66
2021/01/21 03:22:45;;;;;;;3.58;2.00;;;;;;;9.70;100.00;98394.78;5194301;28;20028;-65
2021/01/21 03:25:16;;;;;;;3.88;1.45;;;;;;;9.71;100.00;98399.09;5165369;28;20030;-65
2021/01/21 03:27:46;;;;;;;6.25;1.90;;;;;;;9.69;100.00;98414.53;5180745;28;20033;-66
2021/01/21 03:30:17;;;;;;;4.03;1.38;;;;;;;9.67;100.00;98500.44;5197056;28;20511;-66
2021/01/21 03:32:48;;;;;;;10.38;2.45;;;;;;;9.46;100.00;98584.59;5185488;28;20411;-66
2021/01/21 03:35:18;;;;;;;4.95;1.10;;;;;;;8.76;100.00;98607.69;5199805;28;20022;-67
2021/01/21 03:37:48;;;;;;;4.30;0.70;;;;;;;8.13;100.00;98648.16;5196439;28;20043;-66
2021/01/21 03:40:19;;;;;;;2.05;0.45;;;;;;;7.53;100.00;98658.72;5196845;28;20060;-65
2021/01/21 03:42:49;;;;;;;2.58;0.40;;;;;;;7.25;100.00;98671.31;5192487;28;20025;-66
2021/01/21 03:45:20;;;;;;;3.05;0.47;;;;;;;7.00;100.00;98708.31;5186439;28;20021;-67
2021/01/21 03:47:50;;;;;;;5.32;0.60;;;;;;;6.82;100.00;98705.28;5195728;28;20025;-66
2021/01/21 03:50:21;;;;;;;3.33;0.60;;;;;;;6.68;100.00;98723.06;5189573;28;20025;-66
2021/01/21 03:52:51;;;;;;;4.13;0.43;;;;;;;6.47;100.00;98739.84;5204739;28;20044;-65
2021/01/21 03:55:22;;;;;;;2.97;0.70;;;;;;;6.29;100.00;98740.31;5185216;28;20060;-65
2021/01/21 03:57:52;;;;;;;3.58;0.60;;;;;;;6.18;100.00;98740.81;5184918;28;20026;-66
2021/01/21 04:00:23;;;;;;;6.18;0.50;;;;;;;6.15;100.00;98730.53;5184840;28;20443;-66
2021/01/21 04:02:53;;;;;;;3.28;0.40;;;;;;;6.10;100.00;98748.91;5185914;28;20868;-66
2021/01/21 04:05:24;;;;;;;6.97;0.70;;;;;;;6.02;100.00;98744.53;5205242;28;20507;-66
2021/01/21 04:07:54;;;;;;;3.30;0.43;;;;;;;6.05;100.00;98768.13;5202151;28;20388;-66
2021/01/21 04:10:24;;;;;;;6.43;0.75;;;;;;;6.00;100.00;98772.34;5184687;28;20021;-66
2021/01/21 04:12:55;;;;;;;6.18;0.73;;;;;;;5.89;100.00;98784.28;5197418;28;20026;-66
2021/01/21 04:15:25;;;;;;;4.82;0.60;;;;;;;5.84;100.00;98790.16;5195454;28;20025;-65
2021/01/21 04:17:56;;;;;;;4.72;0.80;;;;;;;5.64;100.00;98781.94;5199324;28;20049;-65
2021/01/21 04:20:26;;;;;;;5.32;1.10;;;;;;;5.54;100.00;98777.91;5192103;28;20028;-66
2021/01/21 04:22:57;;;;;;;3.30;0.55;;;;;;;5.53;100.00;98789.56;5203909;28;20028;-65
2021/01/21 04:25:27;;;;;;;1.10;0.35;;;;;;;5.55;100.00;98792.84;5182248;28;20025;-66
2021/01/21 04:27:58;;;;;;;2.55;0.60;;;;;;;5.52;100.00;98777.25;5192321;28;20144;-66
2021/01/21 04:30:30;;;;;;;4.25;0.60;;;;;;;5.52;100.00;98783.38;5191210;28;20037;-66
2021/01/21 04:33:00;;;;;;;2.35;0.55;;;;;;;5.50;100.00;98835.13;5204294;28;20109;-65
2021/01/21 04:35:31;;;;;;;3.95;0.28;;;;;;;5.47;100.00;98830.97;5187391;28;20053;-66
2021/01/21 04:38:01;;;;;;;5.22;0.68;;;;;;;5.50;100.00;98835.13;5182076;28;20026;-66
2021/01/21 04:40:32;;;;;;;9.60;0.90;;;;;;;5.55;100.00;98841.53;5193984;28;20962;-66
2021/01/21 04:43:03;;;;;;;6.43;0.60;;;;;;;5.53;100.00;98829.44;5195207;28;20076;-66
2021/01/21 04:45:33;;;;;;;7.13;0.95;;;;;;;5.56;100.00;98860.97;5198396;28;20041;-66
2021/01/21 04:48:06;;;;;;;5.57;0.80;;;;;;;5.55;100.00;98875.31;5185344;28;20026;-66
2021/01/21 04:50:37;;;;;;;7.25;0.60;;;;;;;5.53;100.00;98883.47;5183156;28;20036;-65
2021/01/21 04:53:11;;;;;;;6.53;0.85;;;;;;;5.49;100.00;98871.53;5183583;28;20341;-66
2021/01/21 04:55:53;;;;;;;8.25;0.90;;;;;;;5.49;100.00;98846.78;5183640;28;20021;-66
2021/01/21 04:58:31;;;;;;;7.43;1.08;;;;;;;5.55;100.00;98854.84;5188043;28;20071;-66
2021/01/21 05:01:02;;;;;;;10.60;2.95;;;;;;;5.60;100.00;98867.59;5190926;28;20076;-66
2021/01/21 05:03:33;;;;;;;8.75;0.80;;;;;;;5.58;100.00;98866.97;5202946;28;20035;-65
2021/01/21 05:06:04;;;;;;;6.32;1.40;;;;;;;5.58;100.00;98889.06;5189732;28;20025;-66
2021/01/21 05:08:35;;;;;;;11.18;1.30;;;;;;;5.56;100.00;98896.38;5191993;28;20028;-66
2021/01/21 05:11:06;;;;;;;7.65;0.95;;;;;;;5.62;100.00;98901.00;5200931;28;20104;-65
2021/01/21 05:13:37;;;;;;;6.70;1.30;;;;;;;5.60;100.00;98900.34;5192204;28;20112;-65
2021/01/21 05:16:07;;;;;;;1.90;0.70;;;;;;;5.65;100.00;98907.78;5199762;28;20501;-66
2021/01/21 05:18:40;;;;;;;12.90;2.08;;;;;;;5.61;100.00;98923.28;5177763;28;20044;-66
2021/01/21 05:21:10;;;;;;;6.88;1.30;;;;;;;5.64;100.00;98930.06;5187738;28;20494;-66
2021/01/21 05:23:42;;;;;;;8.88;1.08;;;;;;;5.74;100.00;98920.00;5195343;28;20037;-66
2021/01/21 05:26:13;;;;;;;8.77;1.10;;;;;;;5.69;100.00;98922.38;5189150;28;20021;-66
2021/01/21 05:28:44;;;;;;;9.93;2.20;;;;;;;5.67;100.00;98935.00;5203817;28;20060;-66
2021/01/21 05:31:15;;;;;;;7.13;1.23;;;;;;;5.55;100.00;98931.16;5195254;28;20034;-66
2021/01/21 05:33:46;;;;;;;5.40;1.02;;;;;;;5.43;100.00;98936.09;5195357;28;20497;-66
2021/01/21 05:36:17;;;;;;;5.82;1.00;;;;;;;5.32;100.00;98955.97;5182714;28;20030;-66
2021/01/21 05:38:57;;;;;;;13.23;1.10;;;;;;;5.27;100.00;98973.44;5181325;28;20060;-66
2021/01/21 05:41:28;;;;;;;13.82;1.90;;;;;;;5.22;100.00;98976.66;5190976;28;20075;-66
2021/01/21 05:44:01;;;;;;;9.20;1.25;;;;;;;5.21;100.00;98980.28;5182435;28;20419;-66
2021/01/21 05:46:35;;;;;;;14.27;1.70;;;;;;;5.16;100.00;98985.31;5196387;28;20017;-66
2021/01/21 05:49:05;;;;;;;4.28;1.70;;;;;;;5.20;100.00;98994.59;5182720;28;20022;-66
2021/01/21 05:51:37;;;;;;;7.78;1.20;;;;;;;5.19;100.00;99000.91;5197399;28;20395;-65
2021/01/21 05:54:09;;;;;;;8.13;1.17;;;;;;;5.18;100.00;99004.59;5193113;28;20465;-66
2021/01/21 05:56:40;;;;;;;13.88;1.50;;;;;;;5.12;100.00;99008.78;5199128;28;20027;-66
2021/01/21 05:59:13;;;;;;;6.45;1.52;;;;;;;5.18;100.00;99023.19;5203414;28;20025;-66
2021/01/21 06:01:43;;;;;;;9.10;1.80;;;;;;;5.28;100.00;99018.47;5183645;28;20026;-66
2021/01/21 06:04:14;;;;;;;17.50;1.77;;;;;;;5.27;100.00;99037.25;5194889;28;20021;-66
2021/01/21 06:06:46;;;;;;;9.43;1.33;;;;;;;5.22;100.00;99037.78;5188795;28;20483;-66
2021/01/21 06:09:24;;;;;;;10.63;1.48;;;;;;;5.20;100.00;99043.28;5202347;28;20033;-65
2021/01/21 06:11:59;;;;;;;14.90;2.10;;;;;;;5.19;100.00;99038.97;5182042;28;20041;-66
2021/01/21 06:14:30;;;;;;;7.45;1.70;;;;;;;5.18;100.00;99047.13;5182353;28;20038;-66
2021/01/21 06:17:00;;;;;;;8.35;1.33;;;;;;;5.17;100.00;99046.28;5186179;28;20533;-66
2021/01/21 06:19:31;;;;;;;12.02;2.15;;;;;;;5.11;100.00;99044.31;5193206;28;20444;-66
2021/01/21 06:22:08;;;;;;;8.30;1.70;;;;;;;5.09;100.00;99051.66;5182277;28;20041;-66
2021/01/21 06:24:43;;;;;;;6.32;2.03;;;;;;;5.06;100.00;99062.63;5188392;28;20025;-66
2021/01/21 06:27:15;;;;;;;14.68;1.40;;;;;;;5.08;100.00;99059.81;5197184;28;20060;-66
2021/01/21 06:29:47;;;;;;;9.52;1.40;;;;;;;5.07;100.00;99069.63;5203032;28;20021;-66
2021/01/21 06:32:23;;;;;;;5.78;1.13;;;;;;;4.97;100.00;99076.97;5202026;28;20037;-66
2021/01/21 06:34:56;;;;;;;10.02;1.95;;;;;;;4.91;100.00;99086.44;5201778;28;20056;-66
2021/01/21 06:37:31;;;;;;;12.13;2.22;;;;;;;4.96;100.00;99091.22;5199087;28;20037;-66
2021/01/21 06:40:07;;;;;;;16.98;3.45;;;;;;;4.87;100.00;99087.81;5190420;28;20488;-66
2021/01/21 06:42:51;;;;;;;23.95;3.42;;;;;;;4.89;100.00;99098.25;5201734;28;20502;-66
2021/01/21 06:45:22;;;;;;;14.77;1.52;;;;;;;4.92;100.00;99108.56;5197825;28;20022;-66
2021/01/21 06:47:53;;;;;;;13.88;4.00;;;;;;;4.91;100.00;99113.00;5183087;28;20056;-66
2021/01/21 06:50:31;;;;;;;17.63;1.52;;;;;;;4.89;100.00;99117.69;5201050;28;20022;-66
2021/01/21 06:53:05;;;;;;;7.65;1.42;;;;;;;4.94;100.00;99122.47;5201286;28;20048;-66
2021/01/21 06:55:36;;;;;;;13.35;1.70;;;;;;;4.90;100.00;99124.66;5193585;28;20527;-66
2021/01/21 06:58:07;;;;;;;11.75;1.77;;;;;;;4.88;100.00;99131.97;5197487;28;20029;-66
2021/01/21 07:00:39;;;;;;;13.85;1.50;;;;;;;4.88;100.00;99129.31;5192954;28;20029;-66
2021/01/21 07:03:29;;;;;;;10.73;1.80;;;;;;;4.77;100.00;99129.69;5180467;28;20438;-65
2021/01/21 07:06:01;;;;;;;10.32;2.40;;;;;;;4.82;100.00;99140.63;5194439;28;20029;-67
2021/01/21 07:09:03;;;;;;;16.30;1.75;;;;;;;4.78;100.00;99149.94;5181380;28;20026;-66
2021/01/21 07:11:35;;;;;;;9.60;1.60;;;;;;;4.80;100.00;99157.72;5193534;28;20030;-66
2021/01/21 07:14:05;;;;;;;16.88;1.88;;;;;;;4.67;100.00;99166.25;5194645;28;20017;-66
2021/01/21 07:16:37;;;;;;;8.85;1.58;;;;;;;4.62;100.00;99169.41;5201648;28;20537;-68
2021/01/21 07:19:09;;;;;;;10.77;1.50;;;;;;;4.60;100.00;99167.91;5183124;28;20391;-65
2021/01/21 07:21:51;;;;;;;12.32;1.67;;;;;;;4.68;100.00;99159.94;5202491;28;20418;-68
2021/01/21 07:24:22;;;;;;;15.18;1.88;;;;;;;4.79;100.00;99167.53;5186962;28;20117;-66
2021/01/21 07:26:53;;;;;;;19.17;2.10;;;;;;;4.80;100.00;99171.84;5181450;28;20057;-66
2021/01/21 07:29:37;;;;;;;7.75;1.60;;;;;;;4.89;100.00;99180.63;5187799;28;20123;-67
2021/01/21 07:32:08;;;;;;;15.88;3.25;;;;;;;5.06;100.00;99184.06;5201396;28;20064;-66
2021/01/21 07:34:40;;;;;;;17.98;2.75;;;;;;;5.15;100.00;99189.19;5201012;28;20099;-66
2021/01/21 07:37:36;;;;;;;7.00;1.92;;;;;;;5.23;100.00;99192.81;5201956;28;20133;-67
2021/01/21 07:40:10;;;;;;;15.32;1.50;;;;;;;5.32;100.00;99199.75;5188126;28;20622;-67
2021/01/21 07:42:41;;;;;;;19.48;1.80;;;;;;;5.33;100.00;99198.75;5189979;28;20732;-68
2021/01/21 07:45:18;;;;;;;14.70;1.85;;;;;;;5.39;100.00;99192.75;5200686;28;20034;-65
2021/01/21 07:47:51;;;;;;;19.25;1.70;;;;;;;5.37;100.00;99192.94;5191488;28;20014;-65
2021/01/21 07:50:22;;;;;;;13.75;1.58;;;;;;;5.38;100.00;99194.59;5194367;28;20025;-65
2021/01/21 07:52:54;;;;;;;24.63;3.22;;;;;;;5.49;100.00;99197.84;5193460;28;20040;-64
2021/01/21 07:55:34;;;;;;;11.15;1.52;;;;;;;5.53;100.00;99196.50;5194883;28;20504;-65
2021/01/21 07:58:35;;;;;;;10.73;2.20;;;;;;;5.59;100.00;99207.28;5193888;28;20071;-66
2021/01/21 08:01:09;;;;;;;14.60;2.42;;;;;;;5.66;100.00;99212.72;5181837;28;20101;-66
2021/01/21 08:03:41;;;;;;;9.68;3.10;;;;;;;5.68;100.00;99216.06;5187877;28;20021;-66
2021/01/21 08:06:17;;;;;;;12.07;2.22;;;;;;;5.69;100.00;99217.72;5201799;28;20021;-65
2021/01/21 08:08:50;;;;;;;11.77;2.28;;;;;;;5.61;100.00;99226.53;5191613;28;20030;-65
2021/01/21 08:11:23;;;;;;;13.30;1.88;;;;;;;5.50;100.00;99215.47;5194640;28;20041;-65
2021/01/21 08:13:57;;;;;;;15.90;1.85;;;;;;;5.42;100.00;99227.81;5180630;28;20026;-65
2021/01/21 08:16:28;;;;;;;9.88;1.80;;;;;;;5.42;100.00;99221.63;5203259;28;20029;-66
2021/01/21 08:19:00;;;;;;;15.02;2.47;;;;;;;5.40;100.00;99223.66;5191688;28;20079;-65
2021/01/21 08:21:31;;;;;;;14.65;2.03;;;;;;;5.50;100.00;99218.13;5198362;28;20430;-65
2021/01/21 08:24:03;;;;;;;9.70;1.45;;;;;;;5.53;100.00;99226.59;5187378;28;20026;-66
2021/01/21 08:26:36;;;;;;;13.43;1.92;;;;;;;5.48;100.00;99231.63;5184852;28;20116;-66
2021/01/21 08:29:10;;;;;;;11.48;1.75;;;;;;;5.47;100.00;99229.94;5201429;28;20094;-66
2021/01/21 08:31:47;;;;;;;8.88;2.05;;;;;;;5.43;100.00;99228.63;5204507;28;20029;-65
2021/01/21 08:34:22;;;;;;;9.23;1.65;;;;;;;5.44;100.00;99252.41;5204198;28;20442;-65
2021/01/21 08:37:03;;;;;;;4.85;1.35;;;;;;;5.40;100.00;99237.78;5190452;28;20053;-65
2021/01/21 08:39:35;;;;;;;9.05;1.65;;;;;;;5.40;100.00;99247.59;5185252;28;20041;-65
2021/01/21 08:42:07;;;;;;;8.57;1.75;;;;;;;5.38;100.00;99242.44;5204556;28;20068;-65
2021/01/21 08:44:38;;;;;;;8.70;1.60;;;;;;;5.41;100.00;99250.06;5203951;28;20021;-65
2021/01/21 08:47:09;;;;;;;12.10;1.85;;;;;;;5.45;100.00;99251.38;5200493;28;20018;-66
2021/01/21 08:49:39;;;;;;;7.20;2.25;;;;;;;5.57;100.00;99257.19;5184007;28;20381;-65
2021/01/21 08:52:10;;;;;;;9.15;1.70;;;;;;;5.71;100.00;99256.44;5190628;28;20075;-65
2021/01/21 08:54:52;;;;;;;11.45;2.30;;;;;;;5.87;100.00;99257.34;5202726;28;20454;-65
2021/01/21 08:57:24;;;;;;;15.07;2.08;;;;;;;6.02;100.00;99254.78;5184192;28;20030;-66
2021/01/21 09:00:11;;;;;;;8.38;1.80;;;;;;;6.19;100.00;99262.53;5200705;28;20433;-64
2021/01/21 09:02:42;;;;;;;10.80;1.58;;;;;;;6.19;100.00;99262.53;5204053;28;20499;-64
2021/01/21 09:05:13;;;;;;;5.90;1.83;;;;;;;6.24;100.00;99269.97;5190477;28;20406;-64
2021/01/21 09:07:43;;;;;;;13.15;2.00;;;;;;;6.21;100.00;99259.66;5191039;28;20128;-65
2021/01/21 09:10:14;;;;;;;8.63;2.20;;;;;;;6.26;100.00;99270.63;5204097;28;20132;-65
2021/01/21 09:12:44;;;;;;;9.95;2.45;;;;;;;6.27;100.00;99282.94;5203763;28;20425;-65
2021/01/21 09:15:15;;;;;;;16.58;2.85;;;;;;;6.36;100.00;99289.84;5202772;28;20052;-65
2021/01/21 09:18:03;;;;;;;14.30;2.10;;;;;;;6.42;100.00;99293.66;5194370;28;20026;-65
2021/01/21 09:20:34;;;;;;;7.20;1.45;;;;;;;6.46;100.00;99284.31;5196240;28;20025;-65
2021/01/21 09:23:12;;;;;;;11.27;1.85;;;;;;;6.45;100.00;99301.28;5202632;28;20048;-65
2021/01/21 09:25:42;;;;;;;19.63;2.28;;;;;;;6.51;100.00;99302.41;5183832;28;20072;-65
2021/01/21 09:28:14;;;;;;;6.53;1.92;;;;;;;6.43;100.00;99290.81;5203326;28;20422;-65
2021/01/21 09:30:44;;;;;;;11.95;1.88;;;;;;;6.42;100.00;99291.81;5198774;28;20033;-65
2021/01/21 09:33:15;;;;;;;12.88;1.92;;;;;;;6.44;100.00;99289.81;5182897;28;20025;-65
2021/01/21 09:35:50;;;;;;;10.52;1.48;;;;;;;6.54;100.00;99280.75;5201495;28;20060;-65
2021/01/21 09:38:20;;;;;;;;;;;;;;;6.53;100.00;99292.44;5186268;28;20069;-65
2021/01/21 09:40:51;;;;;;;15.35;1.48;;;;;;;6.50;100.00;99290.94;5203491;28;20383;-65
2021/01/21 09:43:21;;;;;;;11.00;2.05;;;;;;;6.44;100.00;99303.13;5203424;28;20029;-65
2021/01/21 09:45:52;;;;;;;10.70;1.65;;;;;;;6.37;100.00;99304.84;5194524;28;20327;-65
2021/01/21 09:48:24;;;;;;;12.05;2.38;;;;;;;6.43;100.00;99298.00;5182959;28;20044;-65
2021/01/21 09:50:54;;;;;;;10.75;1.83;;;;;;;6.59;100.00;99297.03;5192127;28;20112;-65
2021/01/21 09:53:25;;;;;;;15.02;1.60;;;;;;;6.72;100.00;99294.59;5199116;28;20112;-65
2021/01/21 09:55:55;;;;;;;4.90;1.40;;;;;;;6.78;100.00;99298.38;5193419;28;20033;-65
2021/01/21 09:58:26;;;;;;;11.27;2.53;;;;;;;6.89;100.00;99296.13;5203214;28;20071;-65
2021/01/21 10:00:56;;;;;;;5.38;1.27;;;;;;;6.86;100.00;99300.97;5202540;28;20090;-66
2021/01/21 10:03:27;;;;;;;5.82;1.90;;;;;;;6.91;100.00;99302.09;5183038;28;20040;-65
2021/01/21 10:05:57;;;;;;;6.57;2.47;;;;;;;6.90;100.00;99302.28;5182664;28;20060;-65
2021/01/21 10:08:28;;;;;;;8.20;1.35;;;;;;;6.95;100.00;99307.91;5202981;28;20017;-65
2021/01/21 10:10:58;;;;;;;7.40;1.30;;;;;;;7.03;100.00;99312.31;5201602;28;20025;-65
2021/01/21 10:13:29;;;;;;;6.07;1.23;;;;;;;7.01;100.00;99308.00;5189982;28;20028;-65
2021/01/21 10:15:59;;;;;;;13.00;1.73;;;;;;;7.09;100.00;99311.63;5199724;28;20029;-64
2021/01/21 10:18:30;;;;;;;6.38;1.30;;;;;;;7.04;100.00;99312.16;5182471;28;20026;-65
2021/01/21 10:21:00;;;;;;;11.52;1.58;;;;;;;7.10;100.00;99308.75;5198262;28;20025;-65
2021/01/21 10:23:30;;;;;;;10.30;1.55;;;;;;;7.02;100.00;99306.16;5195954;28;20029;-65
2021/01/21 10:26:01;;;;;;;8.10;1.65;;;;;;;7.11;100.00;99314.91;5186732;28;20021;-65
2021/01/21 10:28:31;;;;;;;21.05;2.00;;;;;;;7.14;100.00;99314.56;5190315;28;20026;-65
2021/01/21 10:31:02;;;;;;;9.18;1.60;;;;;;;7.18;100.00;99310.53;5195067;28;20060;-65
2021/01/21 10:33:32;;;;;;;12.10;2.80;;;;;;;7.18;100.00;99323.88;5195051;28;20565;-65
2021/01/21 10:36:05;;;;;;;8.00;1.45;;;;;;;7.22;100.00;99314.47;5194838;28;20044;-65
2021/01/21 10:38:37;;;;;;;7.57;1.65;;;;;;;7.36;100.00;99321.66;5176065;28;20097;-65
2021/01/21 10:41:08;;;;;;;8.88;1.67;;;;;;;7.36;100.00;99323.50;5190745;28;20028;-64
2021/01/21 10:43:39;;;;;;;7.47;1.35;;;;;;;7.34;100.00;99321.03;5185028;28;20026;-65
2021/01/21 10:46:09;;;;;;;8.80;1.60;;;;;;;7.42;100.00;99328.09;5191948;28;20026;-65
2021/01/21 10:48:40;;;;;;;13.30;2.10;;;;;;;7.45;100.00;99320.56;5185677;28;20021;-65
2021/01/21 10:51:10;;;;;;;16.25;1.92;;;;;;;7.44;100.00;99326.09;5192399;28;20367;-65
2021/01/21 10:53:41;;;;;;;4.05;1.15;;;;;;;7.44;100.00;99320.75;5183607;28;20396;-65
2021/01/21 10:56:11;;;;;;;6.72;1.20;;;;;;;7.54;100.00;99318.66;5181597;28;20022;-65
2021/01/21 10:58:42;;;;;;;13.85;1.92;;;;;;;7.51;100.00;99327.84;5200970;28;20394;-65
2021/01/21 11:01:12;;;;;;;7.60;1.40;;;;;;;7.51;100.00;99305.66;5201749;28;20483;-66
2021/01/21 11:03:43;;;;;;;9.15;1.40;;;;;;;7.42;100.00;99320.94;5201184;28;20446;-65
2021/01/21 11:06:14;;;;;;;11.55;1.75;;;;;;;7.47;100.00;99323.88;5201826;28;20029;-65
2021/01/21 11:08:45;;;;;;;4.85;1.58;;;;;;;7.56;100.00;99323.78;5202588;28;20025;-65
2021/01/21 11:11:15;;;;;;;4.80;1.02;;;;;;;7.49;100.00;99323.72;5199928;28;20095;-65
2021/01/21 11:13:46;;;;;;;8.75;1.73;;;;;;;7.52;100.00;99326.00;5190415;28;20021;-66
2021/01/21 11:16:17;;;;;;;5.68;1.33;;;;;;;7.53;100.00;99323.16;5187922;28;20104;-65
2021/01/21 11:18:47;;;;;;;8.45;1.63;;;;;;;7.51;100.00;99325.16;5194661;28;20116;-65
2021/01/21 11:21:18;;;;;;;8.60;1.38;;;;;;;7.56;100.00;99332.63;5188383;28;20025;-65
2021/01/21 11:23:48;;;;;;;8.52;1.33;;;;;;;7.50;100.00;99315.50;5187390;28;20583;-65
2021/01/21 11:26:19;;;;;;;9.25;1.23;;;;;;;7.45;100.00;99323.25;5189221;28;20471;-65
2021/01/21 11:28:49;;;;;;;7.40;1.67;;;;;;;7.47;100.00;99323.88;5201251;28;20029;-66
2021/01/21 11:31:20;;;;;;;11.15;2.10;;;;;;;7.42;100.00;99323.59;5201940;28;20024;-66
2021/01/21 11:33:50;;;;;;;13.68;1.52;;;;;;;7.33;100.00;99313.19;5187685;28;20034;-65
2021/01/21 11:36:21;;;;;;;12.10;1.67;;;;;;;7.34;100.00;99315.69;5191910;28;20557;-64
2021/01/21 11:38:51;;;;;;;13.95;1.80;;;;;;;7.30;100.00;99317.06;5178840;28;20068;-65
2021/01/21 11:41:21;;;;;;;9.00;1.92;;;;;;;7.33;100.00;99297.19;5190943;28;20030;-65
2021/01/21 11:43:52;;;;;;;6.32;1.80;;;;;;;7.35;100.00;99306.69;5180162;28;20485;-65
2021/01/21 11:46:22;;;;;;;10.93;1.60;;;;;;;7.39;100.00;99294.63;5193710;28;20057;-65
2021/01/21 11:48:53;;;;;;;7.97;1.27;;;;;;;7.40;100.00;99301.63;5188016;28;20026;-65
2021/01/21 11:51:23;;;;;;;9.10;2.10;;;;;;;7.46;100.00;99294.72;5190976;28;20084;-65
2021/01/21 11:53:54;;;;;;;12.13;1.55;;;;;;;7.41;100.00;99294.44;5191559;28;20454;-65
2021/01/21 11:56:24;;;;;;;6.20;1.55;;;;;;;7.46;100.00;99294.72;5205417;28;20025;-64